sensor_id;sensor_type;location;lat;lon;timestamp;P1;durP1;ratioP1;P2;durP2;ratioP2
1460;SDS011;724;49.910;12.530;2022-12-18T00:00:39;6.85;;;6.45;;
1460;SDS011;724;49.910;12.530;2022-12-18T00:03:06;6.97;;;6.57;;
1460;SDS011;724;49.910;12.530;2022-12-18T00:05:33;6.57;;;6.18;;
1460;SDS011;724;49.910;12.530;2022-12-18T00:07:59;6.80;;;6.40;;
1460;SDS011;724;49.910;12.530;2022-12-18T00:10:26;6.95;;;6.55;;
1460;SDS011;724;49.910;12.530;2022-12-18T00:12:55;6.70;;;6.30;;
1460;SDS011;724;49.910;12.530;2022-12-18T00:15:22;6.40;;;6.00;;
1460;SDS011;724;49.910;12.530;2022-12-18T00:17:48;6.20;;;5.88;;
1460;SDS011;724;49.910;12.530;2022-12-18T00:20:15;6.60;;;6.20;;
1460;SDS011;724;49.910;12.530;2022-12-18T00:22:46;7.03;;;6.63;;
1460;SDS011;724;49.910;12.530;2022-12-18T00:25:13;6.93;;;6.53;;
1460;SDS011;724;49.910;12.530;2022-12-18T00:27:40;6.80;;;6.40;;
1460;SDS011;724;49.910;12.530;2022-12-18T00:30:09;6.60;;;6.20;;
1460;SDS011;724;49.910;12.530;2022-12-18T00:32:36;6.63;;;6.22;;
1460;SDS011;724;49.910;12.530;2022-12-18T00:35:03;7.00;;;6.60;;
1460;SDS011;724;49.910;12.530;2022-12-18T00:37:31;6.50;;;6.10;;
1460;SDS011;724;49.910;12.530;2022-12-18T00:39:59;6.90;;;6.50;;
1460;SDS011;724;49.910;12.530;2022-12-18T00:42:26;6.78;;;6.38;;
1460;SDS011;724;49.910;12.530;2022-12-18T00:45:12;7.63;;;7.22;;
1460;SDS011;724;49.910;12.530;2022-12-18T00:47:39;7.05;;;6.65;;
1460;SDS011;724;49.910;12.530;2022-12-18T00:50:06;6.88;;;6.47;;
1460;SDS011;724;49.910;12.530;2022-12-18T00:52:34;7.20;;;6.80;;
1460;SDS011;724;49.910;12.530;2022-12-18T00:55:00;7.30;;;6.90;;
1460;SDS011;724;49.910;12.530;2022-12-18T00:57:27;7.15;;;6.75;;
1460;SDS011;724;49.910;12.530;2022-12-18T00:59:54;7.10;;;6.70;;
1460;SDS011;724;49.910;12.530;2022-12-18T01:02:22;7.10;;;6.70;;
1460;SDS011;724;49.910;12.530;2022-12-18T01:04:49;7.28;;;6.88;;
1460;SDS011;724;49.910;12.530;2022-12-18T01:07:15;6.80;;;6.40;;
1460;SDS011;724;49.910;12.530;2022-12-18T01:09:42;6.88;;;6.47;;
1460;SDS011;724;49.910;12.530;2022-12-18T01:12:09;7.38;;;6.97;;
1460;SDS011;724;49.910;12.530;2022-12-18T01:14:36;7.80;;;7.40;;
1460;SDS011;724;49.910;12.530;2022-12-18T01:17:03;7.82;;;7.43;;
1460;SDS011;724;49.910;12.530;2022-12-18T01:19:31;6.90;;;6.50;;
1460;SDS011;724;49.910;12.530;2022-12-18T01:21:58;7.00;;;6.60;;
1460;SDS011;724;49.910;12.530;2022-12-18T01:24:25;7.03;;;6.63;;
1460;SDS011;724;49.910;12.530;2022-12-18T01:26:51;6.95;;;6.55;;
1460;SDS011;724;49.910;12.530;2022-12-18T01:29:18;6.93;;;6.53;;
1460;SDS011;724;49.910;12.530;2022-12-18T01:31:45;7.40;;;7.00;;
1460;SDS011;724;49.910;12.530;2022-12-18T01:34:11;7.13;;;6.72;;
1460;SDS011;724;49.910;12.530;2022-12-18T01:36:40;6.63;;;6.22;;
1460;SDS011;724;49.910;12.530;2022-12-18T01:39:07;6.78;;;6.38;;
1460;SDS011;724;49.910;12.530;2022-12-18T01:41:37;7.32;;;6.93;;
1460;SDS011;724;49.910;12.530;2022-12-18T01:47:25;7.85;;;7.45;;
1460;SDS011;724;49.910;12.530;2022-12-18T01:49:55;7.10;;;6.70;;
1460;SDS011;724;49.910;12.530;2022-12-18T01:52:25;7.22;;;6.82;;
1460;SDS011;724;49.910;12.530;2022-12-18T01:54:54;6.63;;;6.22;;
1460;SDS011;724;49.910;12.530;2022-12-18T01:57:22;7.63;;;7.22;;
1460;SDS011;724;49.910;12.530;2022-12-18T01:59:52;7.30;;;6.90;;
1460;SDS011;724;49.910;12.530;2022-12-18T02:02:20;7.25;;;6.85;;
1460;SDS011;724;49.910;12.530;2022-12-18T02:04:47;7.55;;;7.15;;
1460;SDS011;724;49.910;12.530;2022-12-18T02:07:16;7.95;;;7.55;;
1460;SDS011;724;49.910;12.530;2022-12-18T02:09:56;7.22;;;6.82;;
1460;SDS011;724;49.910;12.530;2022-12-18T02:12:30;8.00;;;7.60;;
1460;SDS011;724;49.910;12.530;2022-12-18T02:15:05;7.20;;;6.80;;
1460;SDS011;724;49.910;12.530;2022-12-18T02:17:39;7.20;;;6.80;;
1460;SDS011;724;49.910;12.530;2022-12-18T02:20:13;7.10;;;6.70;;
1460;SDS011;724;49.910;12.530;2022-12-18T02:22:46;7.30;;;6.90;;
1460;SDS011;724;49.910;12.530;2022-12-18T02:25:28;7.18;;;6.78;;
1460;SDS011;724;49.910;12.530;2022-12-18T02:28:13;7.00;;;6.60;;
1460;SDS011;724;49.910;12.530;2022-12-18T02:30:42;7.00;;;6.60;;
1460;SDS011;724;49.910;12.530;2022-12-18T02:33:11;7.75;;;7.35;;
1460;SDS011;724;49.910;12.530;2022-12-18T02:35:39;7.40;;;7.00;;
1460;SDS011;724;49.910;12.530;2022-12-18T02:38:07;7.50;;;7.10;;
1460;SDS011;724;49.910;12.530;2022-12-18T02:40:35;7.60;;;7.20;;
1460;SDS011;724;49.910;12.530;2022-12-18T02:43:06;7.85;;;7.45;;
1460;SDS011;724;49.910;12.530;2022-12-18T02:45:35;7.68;;;7.28;;
1460;SDS011;724;49.910;12.530;2022-12-18T02:48:01;7.32;;;6.93;;
1460;SDS011;724;49.910;12.530;2022-12-18T02:50:30;7.30;;;6.90;;
1460;SDS011;724;49.910;12.530;2022-12-18T02:53:06;7.00;;;6.60;;
1460;SDS011;724;49.910;12.530;2022-12-18T02:55:41;7.30;;;6.90;;
1460;SDS011;724;49.910;12.530;2022-12-18T02:58:20;7.55;;;7.15;;
1460;SDS011;724;49.910;12.530;2022-12-18T03:00:59;7.50;;;7.10;;
1460;SDS011;724;49.910;12.530;2022-12-18T03:03:34;7.47;;;7.07;;
1460;SDS011;724;49.910;12.530;2022-12-18T03:06:07;7.40;;;7.00;;
1460;SDS011;724;49.910;12.530;2022-12-18T03:08:41;7.20;;;6.80;;
1460;SDS011;724;49.910;12.530;2022-12-18T03:11:11;7.20;;;6.80;;
1460;SDS011;724;49.910;12.530;2022-12-18T03:13:40;7.60;;;7.20;;
1460;SDS011;724;49.910;12.530;2022-12-18T03:16:14;7.20;;;6.80;;
1460;SDS011;724;49.910;12.530;2022-12-18T03:18:45;7.40;;;7.00;;
1460;SDS011;724;49.910;12.530;2022-12-18T03:21:15;6.90;;;6.50;;
1460;SDS011;724;49.910;12.530;2022-12-18T03:23:49;7.22;;;6.82;;
1460;SDS011;724;49.910;12.530;2022-12-18T03:26:19;7.10;;;6.70;;
1460;SDS011;724;49.910;12.530;2022-12-18T03:28:49;7.55;;;7.15;;
1460;SDS011;724;49.910;12.530;2022-12-18T03:31:21;7.10;;;6.70;;
1460;SDS011;724;49.910;12.530;2022-12-18T03:33:51;7.70;;;7.30;;
1460;SDS011;724;49.910;12.530;2022-12-18T03:36:19;7.53;;;7.13;;
1460;SDS011;724;49.910;12.530;2022-12-18T03:38:46;7.65;;;7.25;;
1460;SDS011;724;49.910;12.530;2022-12-18T03:41:15;7.65;;;7.25;;
1460;SDS011;724;49.910;12.530;2022-12-18T03:43:47;7.30;;;6.90;;
1460;SDS011;724;49.910;12.530;2022-12-18T03:46:22;6.70;;;6.30;;
1460;SDS011;724;49.910;12.530;2022-12-18T03:48:56;7.10;;;6.70;;
1460;SDS011;724;49.910;12.530;2022-12-18T03:51:28;7.43;;;7.03;;
1460;SDS011;724;49.910;12.530;2022-12-18T03:54:03;7.38;;;6.97;;
1460;SDS011;724;49.910;12.530;2022-12-18T03:56:33;7.30;;;6.90;;
1460;SDS011;724;49.910;12.530;2022-12-18T03:59:03;7.05;;;6.65;;
1460;SDS011;724;49.910;12.530;2022-12-18T04:01:33;7.20;;;6.80;;
1460;SDS011;724;49.910;12.530;2022-12-18T04:04:03;7.88;;;7.47;;
1460;SDS011;724;49.910;12.530;2022-12-18T04:06:32;7.80;;;7.40;;
1460;SDS011;724;49.910;12.530;2022-12-18T04:09:03;7.40;;;7.00;;
1460;SDS011;724;49.910;12.530;2022-12-18T04:11:30;7.32;;;6.93;;
1460;SDS011;724;49.910;12.530;2022-12-18T04:13:57;7.60;;;7.20;;
1460;SDS011;724;49.910;12.530;2022-12-18T04:16:24;6.97;;;6.57;;
1460;SDS011;724;49.910;12.530;2022-12-18T04:18:53;7.78;;;7.38;;
1460;SDS011;724;49.910;12.530;2022-12-18T04:21:20;7.78;;;7.38;;
1460;SDS011;724;49.910;12.530;2022-12-18T04:23:47;7.25;;;6.85;;
1460;SDS011;724;49.910;12.530;2022-12-18T04:26:14;7.25;;;6.85;;
1460;SDS011;724;49.910;12.530;2022-12-18T04:28:41;7.40;;;7.00;;
1460;SDS011;724;49.910;12.530;2022-12-18T04:31:07;6.97;;;6.57;;
1460;SDS011;724;49.910;12.530;2022-12-18T04:33:34;7.00;;;6.60;;
1460;SDS011;724;49.910;12.530;2022-12-18T04:36:03;7.03;;;6.63;;
1460;SDS011;724;49.910;12.530;2022-12-18T04:38:30;6.90;;;6.50;;
1460;SDS011;724;49.910;12.530;2022-12-18T04:40:57;7.30;;;6.90;;
1460;SDS011;724;49.910;12.530;2022-12-18T04:43:24;7.22;;;6.82;;
1460;SDS011;724;49.910;12.530;2022-12-18T04:45:50;7.30;;;6.90;;
1460;SDS011;724;49.910;12.530;2022-12-18T04:48:17;6.90;;;6.50;;
1460;SDS011;724;49.910;12.530;2022-12-18T04:50:45;6.75;;;6.35;;
1460;SDS011;724;49.910;12.530;2022-12-18T04:53:14;6.60;;;6.20;;
1460;SDS011;724;49.910;12.530;2022-12-18T04:55:40;6.20;;;5.90;;
1460;SDS011;724;49.910;12.530;2022-12-18T04:58:07;6.60;;;6.20;;
1460;SDS011;724;49.910;12.530;2022-12-18T05:00:34;7.00;;;6.60;;
1460;SDS011;724;49.910;12.530;2022-12-18T05:03:01;7.10;;;6.70;;
1460;SDS011;724;49.910;12.530;2022-12-18T05:05:28;6.90;;;6.50;;
1460;SDS011;724;49.910;12.530;2022-12-18T05:07:54;6.40;;;6.00;;
1460;SDS011;724;49.910;12.530;2022-12-18T05:10:22;6.90;;;6.50;;
1460;SDS011;724;49.910;12.530;2022-12-18T05:12:49;6.93;;;6.53;;
1460;SDS011;724;49.910;12.530;2022-12-18T05:15:26;6.70;;;6.30;;
1460;SDS011;724;49.910;12.530;2022-12-18T05:17:54;6.88;;;6.47;;
1460;SDS011;724;49.910;12.530;2022-12-18T05:20:21;6.40;;;6.00;;
1460;SDS011;724;49.910;12.530;2022-12-18T05:22:47;6.85;;;6.45;;
1460;SDS011;724;49.910;12.530;2022-12-18T05:25:14;6.47;;;6.07;;
1460;SDS011;724;49.910;12.530;2022-12-18T05:27:42;7.05;;;6.65;;
1460;SDS011;724;49.910;12.530;2022-12-18T05:30:10;6.50;;;6.10;;
1460;SDS011;724;49.910;12.530;2022-12-18T05:32:37;6.15;;;5.85;;
1460;SDS011;724;49.910;12.530;2022-12-18T05:35:05;6.43;;;6.03;;
1460;SDS011;724;49.910;12.530;2022-12-18T05:37:33;5.95;;;5.65;;
1460;SDS011;724;49.910;12.530;2022-12-18T05:39:59;6.15;;;5.85;;
1460;SDS011;724;49.910;12.530;2022-12-18T05:42:26;1.92;;;1.83;;
1460;SDS011;724;49.910;12.530;2022-12-18T05:44:54;1.00;;;0.90;;
1460;SDS011;724;49.910;12.530;2022-12-18T05:47:21;1.10;;;1.00;;
1460;SDS011;724;49.910;12.530;2022-12-18T05:49:48;0.70;;;0.60;;
1460;SDS011;724;49.910;12.530;2022-12-18T05:52:14;0.70;;;0.60;;
1460;SDS011;724;49.910;12.530;2022-12-18T05:54:41;0.85;;;0.80;;
1460;SDS011;724;49.910;12.530;2022-12-18T05:57:08;0.60;;;0.50;;
1460;SDS011;724;49.910;12.530;2022-12-18T05:59:35;0.60;;;0.50;;
1460;SDS011;724;49.910;12.530;2022-12-18T06:02:03;0.90;;;0.80;;
1460;SDS011;724;49.910;12.530;2022-12-18T06:04:30;1.30;;;1.20;;
1460;SDS011;724;49.910;12.530;2022-12-18T06:06:56;1.50;;;1.40;;
1460;SDS011;724;49.910;12.530;2022-12-18T06:09:23;1.50;;;1.40;;
1460;SDS011;724;49.910;12.530;2022-12-18T06:11:50;2.05;;;1.92;;
1460;SDS011;724;49.910;12.530;2022-12-18T06:14:18;2.05;;;1.92;;
1460;SDS011;724;49.910;12.530;2022-12-18T06:16:44;2.05;;;1.92;;
1460;SDS011;724;49.910;12.530;2022-12-18T06:19:15;2.30;;;2.10;;
1460;SDS011;724;49.910;12.530;2022-12-18T06:21:42;2.20;;;2.00;;
1460;SDS011;724;49.910;12.530;2022-12-18T06:24:09;2.20;;;2.00;;
1460;SDS011;724;49.910;12.530;2022-12-18T06:26:36;2.20;;;2.00;;
1460;SDS011;724;49.910;12.530;2022-12-18T06:29:04;1.80;;;1.70;;
1460;SDS011;724;49.910;12.530;2022-12-18T06:31:31;1.70;;;1.60;;
1460;SDS011;724;49.910;12.530;2022-12-18T06:33:57;1.42;;;1.33;;
1460;SDS011;724;49.910;12.530;2022-12-18T06:36:25;1.08;;;0.98;;
1460;SDS011;724;49.910;12.530;2022-12-18T06:38:52;1.00;;;0.90;;
1460;SDS011;724;49.910;12.530;2022-12-18T06:41:20;0.93;;;0.82;;
1460;SDS011;724;49.910;12.530;2022-12-18T06:43:47;0.85;;;0.75;;
1460;SDS011;724;49.910;12.530;2022-12-18T06:46:14;0.60;;;0.50;;
1460;SDS011;724;49.910;12.530;2022-12-18T06:48:40;0.70;;;0.60;;
1460;SDS011;724;49.910;12.530;2022-12-18T06:51:07;0.70;;;0.60;;
1460;SDS011;724;49.910;12.530;2022-12-18T06:53:35;0.50;;;0.40;;
1460;SDS011;724;49.910;12.530;2022-12-18T06:56:02;0.70;;;0.60;;
1460;SDS011;724;49.910;12.530;2022-12-18T06:58:31;0.60;;;0.50;;
1460;SDS011;724;49.910;12.530;2022-12-18T07:00:59;0.60;;;0.50;;
1460;SDS011;724;49.910;12.530;2022-12-18T07:03:26;0.50;;;0.40;;
1460;SDS011;724;49.910;12.530;2022-12-18T07:05:53;0.70;;;0.60;;
1460;SDS011;724;49.910;12.530;2022-12-18T07:08:20;0.50;;;0.40;;
1460;SDS011;724;49.910;12.530;2022-12-18T07:10:48;0.55;;;0.45;;
1460;SDS011;724;49.910;12.530;2022-12-18T07:13:15;0.60;;;0.50;;
1460;SDS011;724;49.910;12.530;2022-12-18T07:15:42;0.60;;;0.50;;
1460;SDS011;724;49.910;12.530;2022-12-18T07:18:09;0.50;;;0.40;;
1460;SDS011;724;49.910;12.530;2022-12-18T07:20:36;0.50;;;0.40;;
1460;SDS011;724;49.910;12.530;2022-12-18T07:23:03;0.60;;;0.50;;
1460;SDS011;724;49.910;12.530;2022-12-18T07:25:33;0.60;;;0.50;;
1460;SDS011;724;49.910;12.530;2022-12-18T07:28:01;0.60;;;0.50;;
1460;SDS011;724;49.910;12.530;2022-12-18T07:30:29;0.70;;;0.60;;
1460;SDS011;724;49.910;12.530;2022-12-18T07:32:56;0.70;;;0.60;;
1460;SDS011;724;49.910;12.530;2022-12-18T07:35:22;0.50;;;0.40;;
1460;SDS011;724;49.910;12.530;2022-12-18T07:37:49;0.70;;;0.60;;
1460;SDS011;724;49.910;12.530;2022-12-18T07:40:16;0.60;;;0.50;;
1460;SDS011;724;49.910;12.530;2022-12-18T07:42:42;0.70;;;0.60;;
1460;SDS011;724;49.910;12.530;2022-12-18T07:45:11;0.40;;;0.30;;
1460;SDS011;724;49.910;12.530;2022-12-18T07:47:37;0.60;;;0.50;;
1460;SDS011;724;49.910;12.530;2022-12-18T07:50:06;0.30;;;0.20;;
1460;SDS011;724;49.910;12.530;2022-12-18T07:52:33;0.40;;;0.30;;
1460;SDS011;724;49.910;12.530;2022-12-18T07:55:00;0.30;;;0.20;;
1460;SDS011;724;49.910;12.530;2022-12-18T07:57:27;0.30;;;0.20;;
1460;SDS011;724;49.910;12.530;2022-12-18T07:59:53;0.32;;;0.22;;
1460;SDS011;724;49.910;12.530;2022-12-18T08:02:21;0.30;;;0.20;;
1460;SDS011;724;49.910;12.530;2022-12-18T08:04:48;0.30;;;0.20;;
1460;SDS011;724;49.910;12.530;2022-12-18T08:07:15;0.30;;;0.20;;
1460;SDS011;724;49.910;12.530;2022-12-18T08:09:41;0.30;;;0.20;;
1460;SDS011;724;49.910;12.530;2022-12-18T08:12:08;0.30;;;0.20;;
1460;SDS011;724;49.910;12.530;2022-12-18T08:14:35;0.38;;;0.28;;
1460;SDS011;724;49.910;12.530;2022-12-18T08:17:02;0.40;;;0.30;;
1460;SDS011;724;49.910;12.530;2022-12-18T08:19:30;0.40;;;0.30;;
1460;SDS011;724;49.910;12.530;2022-12-18T08:21:56;0.40;;;0.30;;
1460;SDS011;724;49.910;12.530;2022-12-18T08:24:23;0.40;;;0.30;;
1460;SDS011;724;49.910;12.530;2022-12-18T08:26:50;0.30;;;0.20;;
1460;SDS011;724;49.910;12.530;2022-12-18T08:29:17;0.40;;;0.30;;
1460;SDS011;724;49.910;12.530;2022-12-18T08:31:44;0.50;;;0.40;;
1460;SDS011;724;49.910;12.530;2022-12-18T08:34:10;0.40;;;0.30;;
1460;SDS011;724;49.910;12.530;2022-12-18T08:36:38;0.52;;;0.43;;
1460;SDS011;724;49.910;12.530;2022-12-18T08:39:05;0.40;;;0.30;;
1460;SDS011;724;49.910;12.530;2022-12-18T08:41:32;0.50;;;0.40;;
1460;SDS011;724;49.910;12.530;2022-12-18T08:43:59;0.70;;;0.60;;
1460;SDS011;724;49.910;12.530;2022-12-18T08:46:43;1.30;;;1.20;;
1460;SDS011;724;49.910;12.530;2022-12-18T08:49:10;1.35;;;1.25;;
1460;SDS011;724;49.910;12.530;2022-12-18T08:51:39;2.20;;;2.00;;
1460;SDS011;724;49.910;12.530;2022-12-18T08:54:06;2.50;;;2.30;;
1460;SDS011;724;49.910;12.530;2022-12-18T08:56:33;3.65;;;3.45;;
1460;SDS011;724;49.910;12.530;2022-12-18T08:59:01;4.75;;;4.45;;
1460;SDS011;724;49.910;12.530;2022-12-18T09:01:27;6.60;;;6.20;;
1460;SDS011;724;49.910;12.530;2022-12-18T09:03:54;7.70;;;7.30;;
1460;SDS011;724;49.910;12.530;2022-12-18T09:06:21;8.80;;;8.30;;
1460;SDS011;724;49.910;12.530;2022-12-18T09:08:50;9.60;;;9.10;;
1460;SDS011;724;49.910;12.530;2022-12-18T09:11:19;9.40;;;8.90;;
1460;SDS011;724;49.910;12.530;2022-12-18T09:13:47;9.88;;;9.38;;
1460;SDS011;724;49.910;12.530;2022-12-18T09:16:14;9.90;;;9.40;;
1460;SDS011;724;49.910;12.530;2022-12-18T09:18:42;9.80;;;9.30;;
1460;SDS011;724;49.910;12.530;2022-12-18T09:21:09;10.00;;;9.50;;
1460;SDS011;724;49.910;12.530;2022-12-18T09:23:37;10.30;;;9.80;;
1460;SDS011;724;49.910;12.530;2022-12-18T09:26:06;10.80;;;10.20;;
1460;SDS011;724;49.910;12.530;2022-12-18T09:28:33;10.60;;;10.00;;
1460;SDS011;724;49.910;12.530;2022-12-18T09:31:02;11.00;;;10.40;;
1460;SDS011;724;49.910;12.530;2022-12-18T09:33:31;11.75;;;11.15;;
1460;SDS011;724;49.910;12.530;2022-12-18T09:36:00;11.27;;;10.68;;
1460;SDS011;724;49.910;12.530;2022-12-18T09:38:28;11.50;;;10.90;;
1460;SDS011;724;49.910;12.530;2022-12-18T09:40:56;12.05;;;11.45;;
1460;SDS011;724;49.910;12.530;2022-12-18T09:43:29;11.50;;;10.90;;
1460;SDS011;724;49.910;12.530;2022-12-18T09:46:01;11.80;;;11.20;;
1460;SDS011;724;49.910;12.530;2022-12-18T09:48:34;12.00;;;11.40;;
1460;SDS011;724;49.910;12.530;2022-12-18T09:51:05;12.20;;;11.60;;
1460;SDS011;724;49.910;12.530;2022-12-18T09:53:39;11.95;;;11.35;;
1460;SDS011;724;49.910;12.530;2022-12-18T09:56:11;11.95;;;11.35;;
1460;SDS011;724;49.910;12.530;2022-12-18T09:58:44;12.20;;;11.60;;
1460;SDS011;724;49.910;12.530;2022-12-18T10:01:17;12.10;;;11.50;;
1460;SDS011;724;49.910;12.530;2022-12-18T10:03:47;12.10;;;11.50;;
1460;SDS011;724;49.910;12.530;2022-12-18T10:06:15;11.90;;;11.30;;
1460;SDS011;724;49.910;12.530;2022-12-18T10:08:48;12.00;;;11.40;;
1460;SDS011;724;49.910;12.530;2022-12-18T10:11:24;13.02;;;12.32;;
1460;SDS011;724;49.910;12.530;2022-12-18T10:14:00;12.32;;;11.73;;
1460;SDS011;724;49.910;12.530;2022-12-18T10:16:34;12.10;;;11.50;;
1460;SDS011;724;49.910;12.530;2022-12-18T10:19:12;12.50;;;11.90;;
1460;SDS011;724;49.910;12.530;2022-12-18T10:21:48;12.40;;;11.80;;
1460;SDS011;724;49.910;12.530;2022-12-18T10:24:21;12.50;;;11.90;;
1460;SDS011;724;49.910;12.530;2022-12-18T10:26:54;12.23;;;11.63;;
1460;SDS011;724;49.910;12.530;2022-12-18T10:29:28;12.40;;;11.80;;
1460;SDS011;724;49.910;12.530;2022-12-18T10:31:55;12.40;;;11.80;;
1460;SDS011;724;49.910;12.530;2022-12-18T10:34:21;12.70;;;12.00;;
1460;SDS011;724;49.910;12.530;2022-12-18T10:36:49;12.40;;;11.80;;
1460;SDS011;724;49.910;12.530;2022-12-18T10:39:16;13.00;;;12.30;;
1460;SDS011;724;49.910;12.530;2022-12-18T10:41:44;12.80;;;12.10;;
1460;SDS011;724;49.910;12.530;2022-12-18T10:44:16;13.30;;;12.60;;
1460;SDS011;724;49.910;12.530;2022-12-18T10:46:46;13.25;;;12.55;;
1460;SDS011;724;49.910;12.530;2022-12-18T10:49:19;13.05;;;12.35;;
1460;SDS011;724;49.910;12.530;2022-12-18T10:51:48;12.70;;;12.00;;
1460;SDS011;724;49.910;12.530;2022-12-18T10:54:17;13.02;;;12.32;;
1460;SDS011;724;49.910;12.530;2022-12-18T10:56:47;12.85;;;12.15;;
1460;SDS011;724;49.910;12.530;2022-12-18T10:59:16;12.85;;;12.15;;
1460;SDS011;724;49.910;12.530;2022-12-18T11:01:49;13.25;;;12.55;;
1460;SDS011;724;49.910;12.530;2022-12-18T11:04:19;12.75;;;12.05;;
1460;SDS011;724;49.910;12.530;2022-12-18T11:06:58;13.30;;;12.60;;
1460;SDS011;724;49.910;12.530;2022-12-18T11:09:26;12.85;;;12.15;;
1460;SDS011;724;49.910;12.530;2022-12-18T11:11:54;12.80;;;12.10;;
1460;SDS011;724;49.910;12.530;2022-12-18T11:14:25;13.30;;;12.60;;
1460;SDS011;724;49.910;12.530;2022-12-18T11:16:54;13.02;;;12.32;;
1460;SDS011;724;49.910;12.530;2022-12-18T11:19:28;12.40;;;11.80;;
1460;SDS011;724;49.910;12.530;2022-12-18T11:21:58;12.95;;;12.25;;
1460;SDS011;724;49.910;12.530;2022-12-18T11:24:27;12.80;;;12.10;;
1460;SDS011;724;49.910;12.530;2022-12-18T11:26:57;12.70;;;12.00;;
1460;SDS011;724;49.910;12.530;2022-12-18T11:29:28;13.23;;;12.52;;
1460;SDS011;724;49.910;12.530;2022-12-18T11:34:54;12.45;;;11.85;;
1460;SDS011;724;49.910;12.530;2022-12-18T11:37:25;12.30;;;11.70;;
1460;SDS011;724;49.910;12.530;2022-12-18T11:39:54;12.15;;;11.55;;
1460;SDS011;724;49.910;12.530;2022-12-18T11:42:27;12.18;;;11.57;;
1460;SDS011;724;49.910;12.530;2022-12-18T11:45:03;12.10;;;11.50;;
1460;SDS011;724;49.910;12.530;2022-12-18T11:47:52;11.70;;;11.10;;
1460;SDS011;724;49.910;12.530;2022-12-18T11:50:24;12.10;;;11.50;;
1460;SDS011;724;49.910;12.530;2022-12-18T11:52:55;12.13;;;11.52;;
1460;SDS011;724;49.910;12.530;2022-12-18T11:55:24;12.55;;;11.93;;
1460;SDS011;724;49.910;12.530;2022-12-18T11:57:58;12.55;;;11.93;;
1460;SDS011;724;49.910;12.530;2022-12-18T12:00:31;12.05;;;11.45;;
1460;SDS011;724;49.910;12.530;2022-12-18T12:03:07;12.00;;;11.40;;
1460;SDS011;724;49.910;12.530;2022-12-18T12:05:51;11.75;;;11.15;;
1460;SDS011;724;49.910;12.530;2022-12-18T12:08:27;12.20;;;11.60;;
1460;SDS011;724;49.910;12.530;2022-12-18T12:11:02;12.10;;;11.50;;
1460;SDS011;724;49.910;12.530;2022-12-18T12:13:39;12.60;;;11.95;;
1460;SDS011;724;49.910;12.530;2022-12-18T12:16:16;12.90;;;12.20;;
1460;SDS011;724;49.910;12.530;2022-12-18T12:18:55;11.80;;;11.20;;
1460;SDS011;724;49.910;12.530;2022-12-18T12:21:33;12.13;;;11.52;;
1460;SDS011;724;49.910;12.530;2022-12-18T12:24:09;12.15;;;11.55;;
1460;SDS011;724;49.910;12.530;2022-12-18T12:26:46;11.77;;;11.18;;
1460;SDS011;724;49.910;12.530;2022-12-18T12:29:23;11.55;;;10.95;;
1460;SDS011;724;49.910;12.530;2022-12-18T12:32:03;12.10;;;11.50;;
1460;SDS011;724;49.910;12.530;2022-12-18T12:34:45;11.32;;;10.73;;
1460;SDS011;724;49.910;12.530;2022-12-18T12:37:24;11.52;;;10.93;;
1460;SDS011;724;49.910;12.530;2022-12-18T12:40:02;10.65;;;10.05;;
1460;SDS011;724;49.910;12.530;2022-12-18T12:42:31;11.40;;;10.80;;
1460;SDS011;724;49.910;12.530;2022-12-18T12:45:20;10.70;;;10.10;;
1460;SDS011;724;49.910;12.530;2022-12-18T12:47:53;10.80;;;10.20;;
1460;SDS011;724;49.910;12.530;2022-12-18T12:50:22;11.07;;;10.48;;
1460;SDS011;724;49.910;12.530;2022-12-18T12:52:51;10.30;;;9.80;;
1460;SDS011;724;49.910;12.530;2022-12-18T12:55:21;9.93;;;9.43;;
1460;SDS011;724;49.910;12.530;2022-12-18T12:57:52;10.02;;;9.52;;
1460;SDS011;724;49.910;12.530;2022-12-18T13:00:26;9.20;;;8.70;;
1460;SDS011;724;49.910;12.530;2022-12-18T13:03:01;9.65;;;9.15;;
1460;SDS011;724;49.910;12.530;2022-12-18T13:05:40;9.48;;;8.98;;
1460;SDS011;724;49.910;12.530;2022-12-18T13:08:22;9.15;;;8.65;;
1460;SDS011;724;49.910;12.530;2022-12-18T13:10:50;9.13;;;8.63;;
1460;SDS011;724;49.910;12.530;2022-12-18T13:13:47;8.55;;;8.05;;
1460;SDS011;724;49.910;12.530;2022-12-18T13:16:14;8.45;;;7.97;;
1460;SDS011;724;49.910;12.530;2022-12-18T13:18:48;8.45;;;7.97;;
1460;SDS011;724;49.910;12.530;2022-12-18T13:21:20;8.40;;;7.95;;
1460;SDS011;724;49.910;12.530;2022-12-18T13:23:54;8.10;;;7.70;;
1460;SDS011;724;49.910;12.530;2022-12-18T13:26:29;8.50;;;8.00;;
1460;SDS011;724;49.910;12.530;2022-12-18T13:28:58;8.10;;;7.70;;
1460;SDS011;724;49.910;12.530;2022-12-18T13:34:33;7.53;;;7.13;;
1460;SDS011;724;49.910;12.530;2022-12-18T13:43:24;6.75;;;6.35;;
1460;SDS011;724;49.910;12.530;2022-12-18T13:45:59;6.57;;;6.18;;
1460;SDS011;724;49.910;12.530;2022-12-18T13:48:32;7.03;;;6.63;;
1460;SDS011;724;49.910;12.530;2022-12-18T13:51:01;6.43;;;6.03;;
1460;SDS011;724;49.910;12.530;2022-12-18T13:53:32;6.63;;;6.22;;
1460;SDS011;724;49.910;12.530;2022-12-18T13:56:03;6.50;;;6.10;;
1460;SDS011;724;49.910;12.530;2022-12-18T13:58:30;6.00;;;5.70;;
1460;SDS011;724;49.910;12.530;2022-12-18T14:00:56;6.38;;;6.00;;
1460;SDS011;724;49.910;12.530;2022-12-18T14:03:24;6.45;;;6.05;;
1460;SDS011;724;49.910;12.530;2022-12-18T14:05:54;6.75;;;6.35;;
1460;SDS011;724;49.910;12.530;2022-12-18T14:08:22;6.85;;;6.45;;
1460;SDS011;724;49.910;12.530;2022-12-18T14:10:52;6.90;;;6.50;;
1460;SDS011;724;49.910;12.530;2022-12-18T14:13:20;6.80;;;6.40;;
1460;SDS011;724;49.910;12.530;2022-12-18T14:15:50;6.20;;;5.90;;
1460;SDS011;724;49.910;12.530;2022-12-18T14:18:19;6.47;;;6.07;;
1460;SDS011;724;49.910;12.530;2022-12-18T14:20:49;6.50;;;6.10;;
1460;SDS011;724;49.910;12.530;2022-12-18T14:26:20;6.00;;;5.70;;
1460;SDS011;724;49.910;12.530;2022-12-18T14:28:52;6.05;;;5.75;;
1460;SDS011;724;49.910;12.530;2022-12-18T14:31:19;5.85;;;5.55;;
1460;SDS011;724;49.910;12.530;2022-12-18T14:33:47;5.30;;;5.00;;
1460;SDS011;724;49.910;12.530;2022-12-18T14:36:16;5.30;;;5.00;;
1460;SDS011;724;49.910;12.530;2022-12-18T14:38:47;4.63;;;4.32;;
1460;SDS011;724;49.910;12.530;2022-12-18T14:41:16;4.20;;;3.95;;
1460;SDS011;724;49.910;12.530;2022-12-18T14:43:47;3.95;;;3.75;;
1460;SDS011;724;49.910;12.530;2022-12-18T14:46:27;3.92;;;3.72;;
1460;SDS011;724;49.910;12.530;2022-12-18T14:48:57;3.60;;;3.40;;
1460;SDS011;724;49.910;12.530;2022-12-18T14:51:26;3.50;;;3.30;;
1460;SDS011;724;49.910;12.530;2022-12-18T14:53:55;3.50;;;3.30;;
1460;SDS011;724;49.910;12.530;2022-12-18T14:56:25;3.03;;;2.83;;
1460;SDS011;724;49.910;12.530;2022-12-18T14:58:55;2.60;;;2.40;;
1460;SDS011;724;49.910;12.530;2022-12-18T15:01:25;2.70;;;2.50;;
1460;SDS011;724;49.910;12.530;2022-12-18T15:03:54;2.70;;;2.50;;
1460;SDS011;724;49.910;12.530;2022-12-18T15:06:24;2.47;;;2.28;;
1460;SDS011;724;49.910;12.530;2022-12-18T15:08:54;2.70;;;2.50;;
1460;SDS011;724;49.910;12.530;2022-12-18T15:14:23;2.40;;;2.20;;
1460;SDS011;724;49.910;12.530;2022-12-18T15:16:56;2.70;;;2.50;;
1460;SDS011;724;49.910;12.530;2022-12-18T15:19:25;2.47;;;2.28;;
1460;SDS011;724;49.910;12.530;2022-12-18T15:21:58;2.53;;;2.33;;
1460;SDS011;724;49.910;12.530;2022-12-18T15:24:26;2.00;;;1.90;;
1460;SDS011;724;49.910;12.530;2022-12-18T15:26:56;1.20;;;1.10;;
1460;SDS011;724;49.910;12.530;2022-12-18T15:29:24;0.63;;;0.52;;
1460;SDS011;724;49.910;12.530;2022-12-18T15:31:58;0.50;;;0.40;;
1460;SDS011;724;49.910;12.530;2022-12-18T15:34:26;0.60;;;0.50;;
1460;SDS011;724;49.910;12.530;2022-12-18T15:36:53;0.50;;;0.40;;
1460;SDS011;724;49.910;12.530;2022-12-18T15:39:20;0.50;;;0.40;;
1460;SDS011;724;49.910;12.530;2022-12-18T15:41:47;0.50;;;0.40;;
1460;SDS011;724;49.910;12.530;2022-12-18T15:44:33;0.40;;;0.30;;
1460;SDS011;724;49.910;12.530;2022-12-18T15:47:00;0.40;;;0.30;;